Terminal Aerodrome Forecast
Issued by NWS

Home | Current Version | Previous Version | Text Only | Print | Product List | Glossary On
Versions: 1 2 3 4 5 6 7 8 9 10 11 12 13 14 15 16 17
000
FTUS45 KFGZ 250540
TAFGCN
TAF
KGCN 250540Z 2506/2606 24005KT P6SM FEW250
     FM251800 23011G19KT P6SM VCSH BKN040
      TEMPO 2520/2524 3SM SHRA BR OVC020
     FM260200 VRB05KT P6SM SCT035=

USA.gov is the U.S. government's official web portal to all federal, state and local government web resources and services.